»·PEaware :: N7791P KOAK-KSTS

N7791P :: KOAK-KSTS

FLIGHT INFORMATION

Flight Status: Arrived
Operator: Privately registered:
United States
More flights under this callsign
Pilot: Tom L. (6372)
Aircraft: PIPER PA-24 COMMANCHE
(PA24)
More flights by this aircraft type
Origin: KOAK Metro Oakland Intl
United States
Destination: KSTS Sonoma Co
United States
More flights between these airports :: More routes between these airports
Route: SAU
File this flight plan on PilotEdge
Remarks:
Altitude:
(Current/Filed)
6,000ft
Speed:
(Current/Filed)
145kts
Departed: 16-Dec-18 12:54 PM
Arrived: 16-Dec-18 01:37 PM
Distance/Time
Traveled:
55nm/0:43
Distance/Time
To Go:
Arrived

Flight Plot

Page will automatically refresh every two minutes.

Flight plan parsing failed; only flown route is shown


Map Options




Map Legend


Flown Route
Filed Route
Departure Airport
Arrival Airport
Navaid (VOR, NDB)
Fix

Horizontal Profiles

Position Reports

Time Latitude Longitude Heading Altitude Ground
Speed
16-Dec-18 12:45 37.729701 -122.212284 306 10ft 0kts
16-Dec-18 12:46 37.729701 -122.212284 306 10ft 0kts
16-Dec-18 12:47 37.729701 -122.212284 306 10ft 0kts
16-Dec-18 12:48 37.729701 -122.212284 306 10ft 0kts
16-Dec-18 12:49 37.729377 -122.212626 213 10ft 8kts
16-Dec-18 12:49 37.727798 -122.210937 113 10ft 12kts
16-Dec-18 12:51 37.726217 -122.206291 111 10ft 1kts
16-Dec-18 12:52 37.725613 -122.204641 125 10ft 6kts
16-Dec-18 12:53 37.725455 -122.204478 195 10ft 0kts
16-Dec-18 12:54 37.725780 -122.207821 290 10ft 66kts
16-Dec-18 12:54 37.736839 -122.236976 293 717ft 119kts
16-Dec-18 12:55 37.751323 -122.274628 291 1700ft 119kts
16-Dec-18 12:56 37.769420 -122.312207 300 2443ft 134kts
16-Dec-18 12:57 37.786016 -122.352812 282 3137ft 130kts
16-Dec-18 12:59 37.805059 -122.400901 285 3932ft 130kts
16-Dec-18 12:59 37.818883 -122.434406 285 4487ft 127kts
16-Dec-18 13:00 37.835194 -122.474027 284 5085ft 126kts
16-Dec-18 13:01 37.851298 -122.513070 285 5658ft 124kts
16-Dec-18 13:02 37.883548 -122.536594 330 6227ft 143kts
16-Dec-18 13:03 37.924629 -122.557486 333 6294ft 161kts
16-Dec-18 13:04 37.970789 -122.578994 332 5971ft 179kts
16-Dec-18 13:05 38.016827 -122.600993 332 5971ft 175kts
16-Dec-18 13:06 38.063003 -122.623085 333 5970ft 178kts
16-Dec-18 13:07 38.109351 -122.645226 332 5964ft 179kts
16-Dec-18 13:08 38.155899 -122.667613 332 5960ft 179kts
16-Dec-18 13:09 38.202647 -122.690037 332 5967ft 179kts
16-Dec-18 13:10 38.249441 -122.712529 332 5968ft 180kts
16-Dec-18 13:11 38.296322 -122.735094 332 5965ft 180kts
16-Dec-18 13:12 38.343576 -122.757870 332 5962ft 181kts
16-Dec-18 13:13 38.390628 -122.780582 332 5955ft 181kts
16-Dec-18 13:14 38.437870 -122.803418 331 5951ft 181kts
16-Dec-18 13:15 38.485147 -122.826303 332 5948ft 182kts
16-Dec-18 13:16 38.532622 -122.849315 331 5949ft 183kts
16-Dec-18 13:17 38.580421 -122.872517 331 5949ft 184kts
16-Dec-18 13:18 38.628337 -122.895807 331 5946ft 184kts
16-Dec-18 13:19 38.676591 -122.919295 331 5922ft 183kts
16-Dec-18 13:20 38.724103 -122.942440 331 5918ft 182kts
16-Dec-18 13:21 38.770961 -122.966670 318 5919ft 177kts
16-Dec-18 13:22 38.813214 -123.000059 317 5917ft 178kts
16-Dec-18 13:23 38.859400 -123.019357 35 5672ft 198kts
16-Dec-18 13:24 38.853345 -122.977827 170 5112ft 133kts
16-Dec-18 13:25 38.817894 -122.972243 174 4901ft 120kts
16-Dec-18 13:26 38.785412 -122.966228 174 4923ft 116kts
16-Dec-18 13:27 38.752231 -122.960200 173 4586ft 129kts
16-Dec-18 13:28 38.715448 -122.953219 172 3940ft 134kts
16-Dec-18 13:29 38.678472 -122.946199 171 3305ft 133kts
16-Dec-18 13:30 38.644277 -122.940370 168 3361ft 110kts
16-Dec-18 13:31 38.623850 -122.913277 154 2881ft 92kts
16-Dec-18 13:32 38.597429 -122.889839 144 1648ft 124kts
16-Dec-18 13:33 38.569681 -122.862306 142 774ft 132kts
16-Dec-18 13:34 38.543258 -122.837102 147 545ft 112kts
16-Dec-18 13:35 38.517987 -122.813693 159 262ft 99kts
16-Dec-18 13:36 38.507454 -122.808182 104 129ft 7kts
16-Dec-18 13:37 38.507566 -122.806195 346 129ft 11kts
16-Dec-18 13:38 38.509508 -122.806006 174 129ft 0kts
16-Dec-18 13:39 38.509428 -122.806003 179 129ft 0kts
16-Dec-18 13:40 38.509428 -122.806003 179 129ft 0kts
16-Dec-18 13:41 38.509428 -122.806003 179 129ft 0kts
16-Dec-18 13:42 38.509428 -122.806003 179 129ft 0kts
16-Dec-18 13:43 38.509428 -122.806003 179 129ft 0kts
16-Dec-18 13:44 38.509428 -122.806003 179 129ft 0kts
16-Dec-18 13:45 38.509428 -122.806003 179 129ft 0kts
16-Dec-18 13:46 38.509428 -122.806003 179 129ft 0kts
16-Dec-18 13:47 38.509428 -122.806003 179 129ft 0kts
16-Dec-18 13:48 38.509428 -122.806003 179 129ft 0kts
16-Dec-18 13:49 38.509428 -122.806003 179 129ft 0kts
16-Dec-18 13:50 38.509428 -122.806003 179 129ft 0kts
16-Dec-18 13:51 38.509428 -122.806003 179 129ft 0kts

Navigation Log

Ident Type
Flight plan parsing failed, navigation log unavailable